Tümü
Akademiska Sjukhuset Airport ESHU Hava Durumu
There is no TAF data available at ESHU. Showing TAF data for ESCM (4 mi KB).
ESCM Terminal Alanı Tahmini (ESHU için veri yok)
| Date | Time (CEST) | Flight Rules | Wind Dir. | Speed | Type | Height AGL (ft) | Visibility | Remarks | ||||||
|---|---|---|---|---|---|---|---|---|---|---|---|---|---|---|
There is no METAR data available at ESHU. Showing METAR data for ESCM (4 mi KB).
Yakın zamandaki ESCM METAR geçmişi (ESHU verisi yok)
| Date | Time (CEST) | Flight Rules | Wind Dir. | Speed | Type | Height AGL (ft) | Visibility | Temp (°C) | Temp (°F) | Dew Point (°C) | Dew Point (°F) | Rel. Humid. | Pressure | Density Altitude | Remarks |
|---|---|---|---|---|---|---|---|---|---|---|---|---|---|---|---|
| 02-May | 16:50 | VFR | 230° | 18 kt | 10000 meters | 23° | 73° | 2° | 35° | 25% | 1008 mb | 1.182 ft | |||
| 02-May | 16:20 | VFR | 240° | 20 kt | 10000 meters | 23° | 73° | 1° | 33° | 23% | 1008 mb | 1.182 ft | |||
| 02-May | 15:50 | VFR | 230° | 18 kt | 10000 meters | 23° | 73° | 3° | 37° | 27% | 1008 mb | 1.182 ft | |||
| 02-May | 15:20 | VFR | 240° | 20 kt | 10000 meters | 23° | 73° | 3° | 37° | 27% | 1009 mb | 1.152 ft | |||
| 02-May | 14:50 | VFR | 240° | 17 kt | 10000 meters | 23° | 73° | 3° | 37° | 27% | 1009 mb | 1.152 ft | Wind gusting to 27 KT | ||
| 02-May | 14:20 | VFR | 240° | 18 kt | 10000 meters | 22° | 71° | 3° | 37° | 29% | 1009 mb | 1.032 ft | |||
| 02-May | 13:50 | VFR | 250° | 20 kt | 10000 meters | 22° | 71° | 3° | 37° | 29% | 1010 mb | 1.003 ft | |||
| 02-May | 13:20 | VFR | 250° | 19 kt | 10000 meters | 22° | 71° | 2° | 35° | 27% | 1010 mb | 1.003 ft | |||
| 02-May | 12:50 | VFR | 240° | 18 kt | 10000 meters | 21° | 69° | 2° | 35° | 28% | 1010 mb | 883 ft | |||
| 02-May | 12:20 | VFR | 250° | 21 kt | 10000 meters | 21° | 69° | 2° | 35° | 28% | 1011 mb | 853 ft | |||
| 02-May | 11:50 | VFR | 250° | 20 kt | 10000 meters | 20° | 68° | 2° | 35° | 30% | 1011 mb | 733 ft | Wind gusting to 30 KT | ||
| 02-May | 11:20 | VFR | 240° | 18 kt | 10000 meters | 19° | 66° | 0° | 32° | 28% | 1011 mb | 613 ft | |||
| 02-May | 10:50 | VFR | 230° | 16 kt | 10000 meters | 18° | 64° | 1° | 33° | 32% | 1012 mb | 464 ft | |||
| 02-May | 10:20 | VFR | 230° | 18 kt | 10000 meters | 18° | 64° | 1° | 33° | 32% | 1012 mb | 464 ft | |||
| 02-May | 09:50 | VFR | 240° | 18 kt | 10000 meters | 17° | 62° | 1° | 33° | 34% | 1012 mb | 344 ft | |||
| 02-May | 09:20 | VFR | 230° | 17 kt | 10000 meters | 16° | 60° | 0° | 32° | 34% | 1012 mb | 224 ft | |||
| 02-May | 08:50 | VFR | 240° | 16 kt | 10000 meters | 15° | 59° | 1° | 33° | 39% | 1013 mb | 74 ft | |||
| 02-May | 08:20 | VFR | 240° | 15 kt | 10000 meters | 14° | 57° | 1° | 33° | 41% | 1013 mb | -46 ft | |||
| 02-May | 07:50 | VFR | 240° | 13 kt | 10000 meters | 13° | 55° | 1° | 33° | 44% | 1013 mb | -166 ft | |||
| 02-May | 07:20 | VFR | 240° | 13 kt | 10000 meters | 12° | 53° | 1° | 33° | 47% | 1013 mb | -286 ft | |||
| 02-May | 06:50 | VFR | 240° | 13 kt | 10000 meters | 12° | 53° | 1° | 33° | 47% | 1013 mb | -286 ft | |||
| 02-May | 06:20 | VFR | 230° | 14 kt | 10000 meters | 11° | 51° | 1° | 33° | 50% | 1013 mb | -406 ft | |||
| 02-May | 05:50 | VFR | 220° | 13 kt | 10000 meters | 10° | 50° | 1° | 33° | 53% | 1013 mb | -526 ft | |||
| 02-May | 05:20 | VFR | 230° | 8 kt | 10000 meters | 10° | 50° | 1° | 33° | 53% | 1014 mb | -555 ft |
Giriş
| Tarayıcınız desteklenmiyor. tarayıcınızı yükseltin |
